createdAt,value
2023-12-10T00:02:18.982Z,98881.88
2023-12-10T00:05:04.668Z,98887.00
2023-12-10T00:07:49.845Z,98889.63
2023-12-10T00:10:34.786Z,98892.16
2023-12-10T00:13:19.787Z,98886.16
2023-12-10T00:16:05.073Z,98874.06
2023-12-10T00:18:50.015Z,98889.63
2023-12-10T00:21:35.250Z,98889.63
2023-12-10T00:24:20.149Z,98899.06
2023-12-10T00:27:05.318Z,98887.91
2023-12-10T00:29:50.215Z,98893.94
2023-12-10T00:32:35.393Z,98905.13
2023-12-10T00:35:20.620Z,98908.56
2023-12-10T00:38:05.919Z,98928.41
2023-12-10T00:40:50.851Z,98929.25
2023-12-10T00:43:35.779Z,98936.16
2023-12-10T00:46:20.630Z,98956.75
2023-12-10T00:49:05.655Z,98961.09
2023-12-10T00:51:51.208Z,98951.56
2023-12-10T00:54:36.564Z,98937.84
2023-12-10T00:57:21.529Z,98936.94
2023-12-10T01:00:07.401Z,98930.94
2023-12-10T01:02:52.329Z,98935.19
2023-12-10T01:05:37.458Z,98931.78
2023-12-10T01:08:22.340Z,98929.19
2023-12-10T01:11:07.521Z,98912.03
2023-12-10T01:13:52.360Z,98906.00
2023-12-10T01:16:37.433Z,98907.66
2023-12-10T01:19:22.305Z,98897.38
2023-12-10T01:22:07.772Z,98908.56
2023-12-10T01:24:53.008Z,98909.44
2023-12-10T01:27:38.206Z,98907.69
2023-12-10T01:30:23.321Z,98915.44
2023-12-10T01:33:08.875Z,98906.78
2023-12-10T01:35:54.310Z,98899.03
2023-12-10T01:38:39.561Z,98895.66
2023-12-10T01:41:24.636Z,98899.91
2023-12-10T01:44:09.738Z,98907.66
2023-12-10T01:46:56.476Z,98910.22
2023-12-10T01:49:41.734Z,98898.19
2023-12-10T01:52:27.166Z,98905.06
2023-12-10T01:55:13.403Z,98908.50
2023-12-10T01:57:58.932Z,98920.50
2023-12-10T02:00:44.184Z,98923.94
2023-12-10T02:03:32.293Z,98915.38
2023-12-10T02:06:17.370Z,98919.63
2023-12-10T02:09:02.325Z,98924.75
2023-12-10T02:11:47.397Z,98900.69
2023-12-10T02:14:32.271Z,98914.47
2023-12-10T02:17:17.205Z,98895.50
2023-12-10T02:20:02.096Z,98912.75
2023-12-10T02:22:58.330Z,98917.03
2023-12-10T02:25:43.604Z,98914.47
2023-12-10T02:28:28.575Z,98932.53
2023-12-10T02:31:13.536Z,98917.06
2023-12-10T02:33:58.756Z,98932.53
2023-12-10T02:36:44.153Z,98929.09
2023-12-10T02:39:29.355Z,98937.78
2023-12-10T02:42:14.744Z,99011.72
2023-12-10T02:45:00.029Z,99008.31
2023-12-10T02:47:45.047Z,99022.94
2023-12-10T02:50:30.387Z,99034.97
2023-12-10T02:53:15.572Z,99062.47
2023-12-10T02:56:00.779Z,99075.34
2023-12-10T02:58:45.636Z,99063.34
2023-12-10T03:01:30.785Z,99061.63
2023-12-10T03:04:15.633Z,99058.16
2023-12-10T03:07:00.681Z,99070.19
2023-12-10T03:09:45.637Z,99055.59
2023-12-10T03:12:31.395Z,99055.59
2023-12-10T03:15:16.646Z,99069.34
2023-12-10T03:18:01.944Z,99077.94
2023-12-10T03:20:47.297Z,99082.25
2023-12-10T03:23:32.194Z,99112.31
2023-12-10T03:26:17.044Z,99108.00
2023-12-10T03:29:01.968Z,99117.47
2023-12-10T03:31:46.880Z,99100.31
2023-12-10T03:34:32.088Z,99110.59
2023-12-10T03:37:17.217Z,99111.47
2023-12-10T03:40:02.252Z,99108.03
2023-12-10T03:42:47.075Z,99091.72
2023-12-10T03:45:32.718Z,99082.28
2023-12-10T03:48:17.636Z,99099.44
2023-12-10T03:51:03.032Z,99102.03
2023-12-10T03:53:48.541Z,99109.72
2023-12-10T03:56:33.818Z,99124.34
2023-12-10T03:59:18.812Z,99129.44
2023-12-10T04:02:04.128Z,99137.19
2023-12-10T04:04:49.285Z,99169.78
2023-12-10T04:07:34.160Z,99183.53
2023-12-10T04:10:19.112Z,99190.41
2023-12-10T04:13:03.936Z,99203.25
2023-12-10T04:15:49.370Z,99218.69
2023-12-10T04:18:36.841Z,99219.53
2023-12-10T04:21:23.493Z,99242.69
2023-12-10T04:24:08.544Z,99242.63
2023-12-10T04:26:53.870Z,99234.91
2023-12-10T04:29:38.611Z,99259.75
2023-12-10T04:32:23.582Z,99260.59
2023-12-10T04:35:08.925Z,99269.13
2023-12-10T04:37:54.122Z,99269.06
2023-12-10T04:40:39.672Z,99296.53
2023-12-10T04:43:25.014Z,99269.06
2023-12-10T04:46:10.003Z,99305.06
2023-12-10T04:48:55.531Z,99284.47
2023-12-10T04:51:40.989Z,99276.69
2023-12-10T04:54:25.946Z,99286.13
2023-12-10T04:57:10.970Z,99265.47
2023-12-10T04:59:55.807Z,99275.78
2023-12-10T05:02:40.780Z,99291.19
2023-12-10T05:05:25.685Z,99285.13
2023-12-10T05:08:10.494Z,99286.81
2023-12-10T05:10:55.810Z,99287.69
2023-12-10T05:13:40.741Z,99288.50
2023-12-10T05:16:26.373Z,99297.00
2023-12-10T05:19:11.280Z,99302.19
2023-12-10T05:21:56.366Z,99315.09
2023-12-10T05:24:41.903Z,99285.94
2023-12-10T05:27:27.080Z,99288.50
2023-12-10T05:30:12.858Z,99291.09
2023-12-10T05:32:58.045Z,99308.19
2023-12-10T05:35:43.363Z,99283.34
2023-12-10T05:38:28.120Z,99279.91
2023-12-10T05:41:13.063Z,99304.75
2023-12-10T05:43:57.984Z,99303.09
2023-12-10T05:46:43.507Z,99306.47
2023-12-10T05:49:30.175Z,99298.75
2023-12-10T05:52:15.122Z,99303.91
2023-12-10T05:55:00.266Z,99320.06
2023-12-10T05:57:45.558Z,99291.88
2023-12-10T06:00:30.474Z,99298.72
2023-12-10T06:03:15.634Z,99292.69
2023-12-10T06:06:00.963Z,99318.47
2023-12-10T06:08:46.448Z,99312.47
2023-12-10T06:11:31.368Z,99308.19
2023-12-10T06:14:16.384Z,99315.00
2023-12-10T06:17:01.254Z,99314.19
2023-12-10T06:19:46.796Z,99309.88
2023-12-10T06:22:32.101Z,99344.22
2023-12-10T06:25:17.423Z,99325.44
2023-12-10T06:28:02.666Z,99314.31
2023-12-10T06:30:47.510Z,99317.56
2023-12-10T06:33:32.394Z,99365.59
2023-12-10T06:36:17.723Z,99337.31
2023-12-10T06:39:02.608Z,99363.06
2023-12-10T06:41:47.499Z,99331.38
2023-12-10T06:44:32.387Z,99338.25
2023-12-10T06:47:17.371Z,99327.88
2023-12-10T06:50:02.264Z,99339.88
2023-12-10T06:52:47.056Z,99335.69
2023-12-10T06:55:32.340Z,99346.75
2023-12-10T06:58:17.459Z,99357.06
2023-12-10T07:01:03.680Z,99348.56
2023-12-10T07:03:48.894Z,99370.84
2023-12-10T07:06:34.641Z,99395.66
2023-12-10T07:09:19.556Z,99375.19
2023-12-10T07:12:04.712Z,99398.22
2023-12-10T07:14:51.626Z,99392.19
2023-12-10T07:17:38.030Z,99396.44
2023-12-10T07:20:23.807Z,99409.34
2023-12-10T07:23:08.671Z,99393.91
2023-12-10T07:25:53.678Z,99404.16
2023-12-10T07:28:38.558Z,99416.13
2023-12-10T07:31:24.031Z,99435.06
2023-12-10T07:34:09.019Z,99458.25
2023-12-10T07:36:54.292Z,99450.56
2023-12-10T07:39:40.015Z,99441.13
2023-12-10T07:42:25.172Z,99440.19
2023-12-10T07:45:10.713Z,99462.50
2023-12-10T07:47:56.213Z,99435.94
2023-12-10T07:50:41.034Z,99465.09
2023-12-10T07:53:26.041Z,99428.25
2023-12-10T07:56:10.848Z,99436.88
2023-12-10T07:58:55.873Z,99438.63
2023-12-10T08:01:41.361Z,99421.53
2023-12-10T08:04:26.470Z,99455.03
2023-12-10T08:07:11.352Z,99441.31
2023-12-10T08:09:56.343Z,99447.28
2023-12-10T08:12:42.303Z,99462.72
2023-12-10T08:15:27.595Z,99466.25
2023-12-10T08:18:12.709Z,99455.00
2023-12-10T08:20:58.013Z,99466.25
2023-12-10T08:23:43.330Z,99505.63
2023-12-10T08:26:28.597Z,99472.25
2023-12-10T08:29:13.519Z,99477.41
2023-12-10T08:31:58.535Z,99486.00
2023-12-10T08:34:43.442Z,99485.16
2023-12-10T08:37:28.297Z,99477.50
2023-12-10T08:40:13.221Z,99486.94
2023-12-10T08:42:58.133Z,99484.41
2023-12-10T08:45:43.005Z,99498.22
2023-12-10T08:48:30.558Z,99469.91
2023-12-10T08:51:15.928Z,99473.34
2023-12-10T08:54:00.742Z,99472.56
2023-12-10T08:56:45.574Z,99466.63
2023-12-10T08:59:30.459Z,99470.16
2023-12-10T09:02:15.435Z,99455.53
2023-12-10T09:05:00.669Z,99458.22
2023-12-10T09:07:45.857Z,99445.38
2023-12-10T09:10:30.837Z,99449.66
2023-12-10T09:13:15.621Z,99456.63
2023-12-10T09:16:01.099Z,99440.28
2023-12-10T09:18:46.561Z,99442.88
2023-12-10T09:21:31.971Z,99434.31
2023-12-10T09:24:17.462Z,99448.91
2023-12-10T09:27:02.430Z,99459.19
2023-12-10T09:29:47.522Z,99469.53
2023-12-10T09:32:33.049Z,99470.34
2023-12-10T09:35:18.650Z,99473.81
2023-12-10T09:38:03.903Z,99483.25
2023-12-10T09:40:48.895Z,99476.38
2023-12-10T09:43:33.897Z,99490.97
2023-12-10T09:46:18.848Z,99496.97
2023-12-10T09:49:04.246Z,99510.75
2023-12-10T09:51:49.201Z,99537.28
2023-12-10T09:54:34.828Z,99521.84
2023-12-10T09:57:21.046Z,99530.47
2023-12-10T10:00:06.738Z,99531.31
2023-12-10T10:02:51.998Z,99524.47
2023-12-10T10:05:37.153Z,99532.25
2023-12-10T10:08:22.305Z,99549.38
2023-12-10T10:11:07.292Z,99528.81
2023-12-10T10:13:52.614Z,99550.28
2023-12-10T10:16:38.304Z,99545.16
2023-12-10T10:19:23.404Z,99576.91
2023-12-10T10:22:08.851Z,99579.47
2023-12-10T10:24:54.704Z,99584.59
2023-12-10T10:27:39.721Z,99612.94
2023-12-10T10:30:25.156Z,99572.56
2023-12-10T10:33:10.714Z,99572.59
2023-12-10T10:35:56.192Z,99590.56
2023-12-10T10:38:41.265Z,99575.97
2023-12-10T10:41:26.644Z,99603.44
2023-12-10T10:44:11.777Z,99588.81
2023-12-10T10:46:57.550Z,99615.47
2023-12-10T10:49:45.861Z,99606.84
2023-12-10T10:52:53.876Z,99614.69
2023-12-10T10:55:39.104Z,99592.34
2023-12-10T10:58:26.034Z,99630.94
2023-12-10T11:01:37.738Z,99624.09
2023-12-10T11:04:23.163Z,99636.09
2023-12-10T11:07:09.315Z,99629.19
2023-12-10T11:09:59.972Z,99634.34
2023-12-10T11:12:45.519Z,99642.97
2023-12-10T11:15:31.663Z,99651.53
2023-12-10T11:18:16.882Z,99671.25
2023-12-10T11:21:02.362Z,99658.50
2023-12-10T11:23:47.341Z,99660.19
2023-12-10T11:26:32.298Z,99655.94
2023-12-10T11:29:17.304Z,99662.78
2023-12-10T11:32:02.198Z,99645.59
2023-12-10T11:34:47.300Z,99651.69
2023-12-10T11:37:32.951Z,99670.53
2023-12-10T11:40:18.241Z,99670.56
2023-12-10T11:43:03.806Z,99659.34
2023-12-10T11:45:49.215Z,99664.50
2023-12-10T11:48:34.648Z,99659.34
2023-12-10T11:51:20.216Z,99658.50
2023-12-10T11:54:06.487Z,99655.94
2023-12-10T11:56:51.787Z,99661.97
2023-12-10T11:59:37.628Z,99649.06
2023-12-10T12:02:24.161Z,99649.97
2023-12-10T12:05:10.269Z,99622.53
2023-12-10T12:07:55.307Z,99620.78
2023-12-10T12:10:40.712Z,99622.56
2023-12-10T12:13:25.885Z,99604.59
2023-12-10T12:16:11.260Z,99590.84
2023-12-10T12:18:56.602Z,99595.09
2023-12-10T12:21:42.011Z,99583.88
2023-12-10T12:24:26.975Z,99565.09
2023-12-10T12:27:12.956Z,99564.22
2023-12-10T12:29:57.937Z,99553.13
2023-12-10T12:32:43.067Z,99554.78
2023-12-10T12:35:28.860Z,99543.63
2023-12-10T12:38:13.995Z,99559.09
2023-12-10T12:40:59.162Z,99559.09
2023-12-10T12:43:44.096Z,99559.97
2023-12-10T12:46:29.084Z,99550.53
2023-12-10T12:49:14.154Z,99529.09
2023-12-10T12:51:59.490Z,99547.19
2023-12-10T12:54:44.428Z,99552.28
2023-12-10T12:57:29.827Z,99561.78
2023-12-10T13:00:15.526Z,99556.56
2023-12-10T13:03:00.686Z,99569.47
2023-12-10T13:05:46.144Z,99565.22
2023-12-10T13:08:31.552Z,99572.19
2023-12-10T13:11:16.452Z,99557.69
2023-12-10T13:14:01.560Z,99553.41
2023-12-10T13:16:46.560Z,99540.69
2023-12-10T13:19:32.398Z,99519.25
2023-12-10T13:22:17.697Z,99470.16
2023-12-10T13:25:02.945Z,99459.78
2023-12-10T13:27:48.277Z,99433.09
2023-12-10T13:30:33.762Z,99401.25
2023-12-10T13:33:19.471Z,99402.16
2023-12-10T13:36:05.834Z,99385.78
2023-12-10T13:38:51.045Z,99390.94
2023-12-10T13:41:35.936Z,99394.38
2023-12-10T13:44:21.378Z,99423.59
2023-12-10T13:47:06.717Z,99439.06
2023-12-10T13:49:51.876Z,99460.50
2023-12-10T13:52:37.109Z,99467.38
2023-12-10T13:55:22.180Z,99487.91
2023-12-10T13:58:07.123Z,99490.53
2023-12-10T14:00:52.266Z,99506.81
2023-12-10T14:03:37.788Z,99503.34
2023-12-10T14:06:23.447Z,99506.72
2023-12-10T14:09:08.701Z,99529.97
2023-12-10T14:11:53.778Z,99528.28
2023-12-10T14:14:38.789Z,99520.53
2023-12-10T14:17:23.658Z,99519.63
2023-12-10T14:20:09.035Z,99543.69
2023-12-10T14:22:54.202Z,99553.16
2023-12-10T14:25:41.581Z,99538.53
2023-12-10T14:28:28.957Z,99546.25
2023-12-10T14:31:14.190Z,99568.56
2023-12-10T14:33:59.137Z,99563.44
2023-12-10T14:36:43.976Z,99554.84
2023-12-10T14:39:28.953Z,99553.13
2023-12-10T14:42:14.409Z,99554.00
2023-12-10T14:44:59.337Z,99547.19
2023-12-10T14:47:44.392Z,99546.34
2023-12-10T14:50:29.835Z,99551.47
2023-12-10T14:53:14.907Z,99548.06
2023-12-10T14:56:00.200Z,99556.69
2023-12-10T14:58:45.028Z,99548.91
2023-12-10T15:01:30.018Z,99565.22
2023-12-10T15:04:15.523Z,99555.78
2023-12-10T15:07:00.726Z,99572.91
2023-12-10T15:09:45.698Z,99576.34
2023-12-10T15:12:30.940Z,99585.81
2023-12-10T15:15:15.745Z,99577.25
2023-12-10T15:18:00.860Z,99578.91
2023-12-10T15:20:46.310Z,99593.47
2023-12-10T15:23:31.195Z,99609.81
2023-12-10T15:26:16.561Z,99592.75
2023-12-10T15:29:01.675Z,99585.91
2023-12-10T15:31:46.997Z,99583.38
2023-12-10T15:34:31.856Z,99585.06
2023-12-10T15:37:16.790Z,99576.56
2023-12-10T15:40:02.369Z,99578.25
2023-12-10T15:42:47.648Z,99571.41
2023-12-10T15:45:32.436Z,99586.88
2023-12-10T15:48:17.478Z,99575.72
2023-12-10T15:51:02.870Z,99583.38
2023-12-10T15:53:47.746Z,99584.28
2023-12-10T15:56:32.655Z,99584.28
2023-12-10T15:59:17.519Z,99587.66
2023-12-10T16:02:02.465Z,99590.28
2023-12-10T16:04:47.922Z,99585.19
2023-12-10T16:07:41.312Z,99581.78
2023-12-10T16:10:34.123Z,99569.69
2023-12-10T16:13:21.831Z,99590.34
2023-12-10T16:16:09.015Z,99578.31
2023-12-10T16:18:54.903Z,99580.97
2023-12-10T16:21:40.374Z,99579.16
2023-12-10T16:24:25.335Z,99573.19
2023-12-10T16:27:10.645Z,99552.59
2023-12-10T16:29:56.029Z,99558.63
2023-12-10T16:32:41.156Z,99540.56
2023-12-10T16:35:25.900Z,99536.25
2023-12-10T16:38:10.954Z,99525.09
2023-12-10T16:40:55.764Z,99519.06
2023-12-10T16:43:43.139Z,99512.22
2023-12-10T16:46:39.648Z,99506.19
2023-12-10T16:49:25.726Z,99504.50
2023-12-10T16:52:10.749Z,99494.97
2023-12-10T16:54:55.586Z,99476.94
2023-12-10T16:57:41.040Z,99469.19
2023-12-10T17:00:26.394Z,99474.34
2023-12-10T17:03:14.544Z,99463.13
2023-12-10T17:05:59.785Z,99470.91
2023-12-10T17:08:44.688Z,99458.84
2023-12-10T17:11:29.747Z,99441.63
2023-12-10T17:14:14.611Z,99423.59
2023-12-10T17:16:59.645Z,99444.22
2023-12-10T17:19:44.645Z,99421.88
2023-12-10T17:22:29.988Z,99384.88
2023-12-10T17:25:15.013Z,99404.63
2023-12-10T17:28:00.456Z,99401.19
2023-12-10T17:30:46.127Z,99404.59
2023-12-10T17:33:31.404Z,99411.47
2023-12-10T17:36:16.634Z,99412.31
2023-12-10T17:39:01.644Z,99394.28
2023-12-10T17:41:46.538Z,99369.34
2023-12-10T17:44:33.425Z,99357.28
2023-12-10T17:47:21.096Z,99331.50
2023-12-10T17:50:07.167Z,99321.19
2023-12-10T17:52:52.368Z,99300.56
2023-12-10T17:55:37.946Z,99285.09
2023-12-10T17:58:23.472Z,99278.22
2023-12-10T18:01:08.443Z,99267.06
2023-12-10T18:03:54.084Z,99247.25
2023-12-10T18:06:39.361Z,99241.25
2023-12-10T18:09:24.713Z,99224.94
2023-12-10T18:12:09.566Z,99219.75
2023-12-10T18:14:54.556Z,99200.84
2023-12-10T18:17:41.191Z,99182.78
2023-12-10T18:20:26.709Z,99160.44
2023-12-10T18:23:11.735Z,99152.66
2023-12-10T18:25:56.822Z,99130.28
2023-12-10T18:28:45.091Z,99120.84
2023-12-10T18:31:30.600Z,99109.66
2023-12-10T18:34:16.097Z,99101.91
2023-12-10T18:37:01.498Z,99087.31
2023-12-10T18:39:46.516Z,99094.19
2023-12-10T18:42:31.434Z,99097.66
2023-12-10T18:45:16.341Z,99120.88
2023-12-10T18:48:01.934Z,99153.56
2023-12-10T18:50:48.012Z,99179.34
2023-12-10T18:53:33.247Z,99204.25
2023-12-10T18:56:18.132Z,99226.53
2023-12-10T18:59:03.299Z,99235.97
2023-12-10T19:01:48.138Z,99226.50
2023-12-10T19:04:33.189Z,99232.47
2023-12-10T19:07:18.554Z,99223.88
2023-12-10T19:10:04.181Z,99219.56
2023-12-10T19:12:49.513Z,99220.38
2023-12-10T19:15:34.458Z,99204.06
2023-12-10T19:18:20.039Z,99193.78
2023-12-10T19:21:05.521Z,99176.56
2023-12-10T19:23:50.640Z,99186.88
2023-12-10T19:26:35.594Z,99176.59
2023-12-10T19:29:20.553Z,99174.88
2023-12-10T19:32:06.058Z,99156.81
2023-12-10T19:34:50.936Z,99144.78
2023-12-10T19:37:36.573Z,99142.16
2023-12-10T19:40:21.773Z,99138.72
2023-12-10T19:43:06.713Z,99141.31
2023-12-10T19:45:51.736Z,99132.72
2023-12-10T19:48:37.254Z,99134.41
2023-12-10T19:51:22.459Z,99130.09
2023-12-10T19:54:07.490Z,99115.53
2023-12-10T19:56:52.388Z,99121.50
2023-12-10T19:59:37.178Z,99105.19
2023-12-10T20:02:22.137Z,99100.03
2023-12-10T20:05:07.541Z,99088.91
2023-12-10T20:07:52.699Z,99098.31
2023-12-10T20:10:38.043Z,99096.63
2023-12-10T20:13:23.309Z,99083.75
2023-12-10T20:16:09.007Z,99075.19
2023-12-10T20:18:54.161Z,99073.47
2023-12-10T20:21:40.038Z,99070.91
2023-12-10T20:24:33.235Z,99082.06
2023-12-10T20:27:21.654Z,99082.94
2023-12-10T20:30:07.223Z,99064.06
2023-12-10T20:32:52.462Z,99053.78
2023-12-10T20:35:38.861Z,99062.41
2023-12-10T20:38:23.677Z,99068.41
2023-12-10T20:41:09.242Z,99063.25
2023-12-10T20:43:54.201Z,99071.88
2023-12-10T20:46:38.977Z,99064.16
2023-12-10T20:49:24.087Z,99057.28
2023-12-10T20:52:09.562Z,99049.63
2023-12-10T20:54:55.052Z,99052.19
2023-12-10T20:57:40.606Z,99049.59
2023-12-10T21:00:26.414Z,99065.03
2023-12-10T21:03:11.794Z,99025.47
2023-12-10T21:05:57.152Z,99027.97
2023-12-10T21:08:42.093Z,99006.50
2023-12-10T21:11:27.282Z,98996.13
2023-12-10T21:14:12.691Z,98988.38
2023-12-10T21:16:57.657Z,98989.19
2023-12-10T21:19:42.705Z,98976.28
2023-12-10T21:22:28.009Z,99000.34
2023-12-10T21:25:14.571Z,98967.59
2023-12-10T21:28:00.261Z,98959.84
2023-12-10T21:30:45.511Z,98965.06
2023-12-10T21:33:30.476Z,98965.88
2023-12-10T21:36:15.418Z,98954.66
2023-12-10T21:39:00.388Z,98952.09
2023-12-10T21:41:45.345Z,98950.34
2023-12-10T21:44:30.278Z,98956.34
2023-12-10T21:47:15.761Z,98944.22
2023-12-10T21:50:00.718Z,98955.41
2023-12-10T21:52:46.107Z,98963.97
2023-12-10T21:55:31.043Z,98954.50
2023-12-10T21:58:16.087Z,98965.66
2023-12-10T22:01:01.663Z,98944.06
2023-12-10T22:03:46.543Z,98956.13
2023-12-10T22:06:32.004Z,98956.06
2023-12-10T22:09:17.417Z,98944.91
2023-12-10T22:12:02.473Z,98939.63
2023-12-10T22:14:47.860Z,98950.78
2023-12-10T22:17:33.396Z,98945.63
2023-12-10T22:20:18.825Z,98947.22
2023-12-10T22:23:03.747Z,98936.97
2023-12-10T22:25:48.677Z,98936.09
2023-12-10T22:28:33.593Z,98942.94
2023-12-10T22:31:18.625Z,98945.56
2023-12-10T22:34:03.488Z,98949.88
2023-12-10T22:36:48.824Z,98969.78
2023-12-10T22:39:34.306Z,98968.03
2023-12-10T22:42:19.077Z,98974.06
2023-12-10T22:45:04.573Z,98983.47
2023-12-10T22:47:50.536Z,98979.16
2023-12-10T22:50:36.947Z,98997.28
2023-12-10T22:53:24.573Z,98965.25
2023-12-10T22:56:09.653Z,98974.06
2023-12-10T22:58:54.968Z,98970.59
2023-12-10T23:01:40.512Z,98975.69
2023-12-10T23:04:25.954Z,98977.44
2023-12-10T23:07:11.655Z,98983.47
2023-12-10T23:09:56.825Z,98992.94
2023-12-10T23:12:41.836Z,98985.09
2023-12-10T23:15:29.715Z,98986.81
2023-12-10T23:18:15.160Z,98985.94
2023-12-10T23:21:00.190Z,98973.88
2023-12-10T23:23:44.943Z,98988.53
2023-12-10T23:26:29.938Z,98965.31
2023-12-10T23:29:14.906Z,98966.19
2023-12-10T23:31:59.798Z,98967.00
2023-12-10T23:34:44.723Z,98973.88
2023-12-10T23:37:29.832Z,98960.09
2023-12-10T23:40:15.273Z,98987.69
2023-12-10T23:43:00.766Z,98979.06
2023-12-10T23:45:45.761Z,98990.25
2023-12-10T23:48:31.198Z,98986.81
2023-12-10T23:51:20.539Z,98968.69
2023-12-10T23:54:05.900Z,98976.47
2023-12-10T23:56:51.078Z,98975.72
2023-12-10T23:59:36.099Z,98987.69
